Time;durP1;ratioP1;P1;durP2;ratioP2;P2;SDS_P1;SDS_P2;PMS_P1;PMS_P2;Temp;Humidity;BMP_temperature;BMP_pressure;BME280_temperature;BME280_humidity;BME280_pressure;Samples;Min_cycle;Max_cycle;Signal;HPM_P1;HPM_P2
2023/04/15 00:01:54;;;;;;;15.60;14.03;;;7.50;99.90;;;;;;5096812;28;20481;-77
2023/04/15 00:04:24;;;;;;;14.23;12.83;;;7.50;99.90;;;;;;5096940;28;20482;-77
2023/04/15 00:06:53;;;;;;;14.37;13.07;;;7.50;99.90;;;;;;5097075;28;20457;-77
2023/04/15 00:09:21;;;;;;;16.73;13.97;;;7.50;99.90;;;;;;5097011;28;20482;-77
2023/04/15 00:11:50;;;;;;;16.97;15.40;;;7.40;99.90;;;;;;5096678;28;20481;-77
2023/04/15 00:14:18;;;;;;;15.97;14.47;;;7.40;99.90;;;;;;5097000;28;20443;-77
2023/04/15 00:16:48;;;;;;;14.90;13.50;;;7.40;99.90;;;;;;5097180;28;20469;-77
2023/04/15 00:19:17;;;;;;;14.97;13.50;;;7.40;99.90;;;;;;5115250;28;20443;-77
2023/04/15 00:21:47;;;;;;;14.60;13.30;;;7.40;99.90;;;;;;5096676;28;20469;-78
2023/04/15 00:24:15;;;;;;;15.57;14.10;;;7.30;99.90;;;;;;5096386;28;20466;-78
2023/04/15 00:26:43;;;;;;;15.30;13.90;;;7.30;99.90;;;;;;5096801;28;20455;-78
2023/04/15 00:29:11;;;;;;;13.77;12.40;;;7.30;99.90;;;;;;5096531;28;20454;-77
2023/04/15 00:31:39;;;;;;;14.90;13.60;;;7.30;99.90;;;;;;5114875;28;20533;-78
2023/04/15 00:34:08;;;;;;;14.50;13.10;;;7.30;99.90;;;;;;5096499;28;20540;-77
2023/04/15 00:36:36;;;;;;;15.00;13.50;;;7.30;99.90;;;;;;5096463;28;20451;-77
2023/04/15 00:39:06;;;;;;;13.77;12.57;;;7.30;99.90;;;;;;5096560;28;20980;-77
2023/04/15 00:41:34;;;;;;;13.97;12.60;;;7.20;99.90;;;;;;5096259;28;20456;-77
2023/04/15 00:44:02;;;;;;;15.17;13.77;;;7.20;99.90;;;;;;5096359;28;20449;-77
2023/04/15 00:46:31;;;;;;;14.33;13.03;;;7.20;99.90;;;;;;5096798;28;20439;-77
2023/04/15 00:49:00;;;;;;;13.67;12.27;;;7.20;99.90;;;;;;5096899;28;20470;-77
2023/04/15 00:51:29;;;;;;;15.53;14.03;;;7.30;99.90;;;;;;5096322;28;20477;-77
2023/04/15 00:53:58;;;;;;;13.97;12.67;;;7.20;99.90;;;;;;5096203;28;20449;-77
2023/04/15 00:56:28;;;;;;;14.57;13.23;;;7.20;99.90;;;;;;5096404;28;20548;-77
2023/04/15 00:58:58;;;;;;;15.77;14.27;;;7.20;99.90;;;;;;5096414;28;20481;-77
2023/04/15 01:01:27;;;;;;;11.27;10.20;;;7.20;99.90;;;;;;5096195;28;20511;-78
2023/04/15 01:03:57;;;;;;;13.73;12.43;;;7.20;99.90;;;;;;5096439;28;20813;-77
2023/04/15 01:06:28;;;;;;;15.00;13.63;;;7.30;99.90;;;;;;5096168;28;20945;-77
2023/04/15 01:08:57;;;;;;;14.13;12.83;;;7.20;99.90;;;;;;5096631;28;20918;-77
2023/04/15 01:11:28;;;;;;;14.67;13.37;;;7.20;99.90;;;;;;5114731;28;20431;-78
2023/04/15 01:13:58;;;;;;;15.70;14.03;;;7.20;99.90;;;;;;5096438;28;20438;-78
2023/04/15 01:16:27;;;;;;;15.13;13.73;;;7.20;99.90;;;;;;5097521;28;20476;-77
2023/04/15 01:18:56;;;;;;;15.80;14.37;;;7.20;99.90;;;;;;5096265;28;20452;-77
2023/04/15 01:21:25;;;;;;;16.50;15.00;;;7.20;99.90;;;;;;5096086;28;20535;-77
2023/04/15 01:23:55;;;;;;;15.30;13.90;;;7.20;99.90;;;;;;5095858;28;20965;-77
2023/04/15 01:26:26;;;;;;;15.03;13.63;;;7.20;99.90;;;;;;5095507;28;20438;-77
2023/04/15 01:28:55;;;;;;;15.40;12.70;;;7.20;99.90;;;;;;5095857;28;20437;-77
2023/04/15 01:31:24;;;;;;;15.23;13.83;;;7.20;99.90;;;;;;5095305;28;20454;-77
2023/04/15 01:33:52;;;;;;;15.07;13.67;;;7.20;99.90;;;;;;5096013;28;20530;-77
2023/04/15 01:36:20;;;;;;;14.33;12.93;;;7.20;99.90;;;;;;5096430;28;20513;-77
2023/04/15 01:38:49;;;;;;;14.37;13.07;;;7.20;99.90;;;;;;5100099;28;20480;-77
2023/04/15 01:41:18;;;;;;;14.87;13.50;;;7.20;99.90;;;;;;5099510;28;20442;-77
2023/04/15 01:43:48;;;;;;;14.40;13.17;;;7.20;99.90;;;;;;5100158;28;20448;-78
2023/04/15 01:46:16;;;;;;;14.77;13.47;;;7.20;99.90;;;;;;5118419;28;20994;-78
2023/04/15 01:48:44;;;;;;;14.47;13.17;;;7.20;99.90;;;;;;5102316;28;20539;-78
2023/04/15 01:51:12;;;;;;;14.47;13.17;;;7.20;99.90;;;;;;5103291;28;20446;-78
2023/04/15 01:53:41;;;;;;;15.20;13.80;;;7.10;99.90;;;;;;5118838;28;20829;-78
2023/04/15 01:56:09;;;;;;;16.17;14.70;;;7.10;99.90;;;;;;5100241;28;20548;-78
2023/04/15 01:58:37;;;;;;;15.80;14.23;;;7.10;99.90;;;;;;5099988;28;20943;-78
2023/04/15 02:01:09;;;;;;;14.90;13.60;;;7.10;99.90;;;;;;5099498;28;20461;-78
2023/04/15 02:03:38;;;;;;;14.77;13.37;;;7.10;99.90;;;;;;5099834;28;20472;-77
2023/04/15 02:06:06;;;;;;;15.53;14.03;;;7.10;99.90;;;;;;5099494;28;20539;-78
2023/04/15 02:08:34;;;;;;;15.40;14.00;;;7.10;99.90;;;;;;5099823;28;20769;-77
2023/04/15 02:11:02;;;;;;;16.73;14.97;;;7.10;99.90;;;;;;5100073;28;20443;-78
2023/04/15 02:13:32;;;;;;;15.33;13.93;;;7.00;99.90;;;;;;5098989;28;20477;-78
2023/04/15 02:16:00;;;;;;;18.10;16.43;;;7.00;99.90;;;;;;5100340;28;20466;-78
2023/04/15 02:18:29;;;;;;;16.90;15.40;;;7.00;99.90;;;;;;5117652;28;20941;-77
2023/04/15 02:20:58;;;;;;;16.00;14.50;;;7.00;99.90;;;;;;5099393;28;20536;-77
2023/04/15 02:23:26;;;;;;;17.47;15.87;;;6.90;99.90;;;;;;5098933;28;20465;-78
2023/04/15 02:25:54;;;;;;;15.97;14.50;;;6.90;99.90;;;;;;5117433;28;20967;-77
2023/04/15 02:28:22;;;;;;;15.67;14.27;;;6.90;99.90;;;;;;5099015;28;20456;-78
2023/04/15 02:30:51;;;;;;;17.63;15.97;;;6.90;99.90;;;;;;5099313;28;20441;-77
2023/04/15 02:33:21;;;;;;;15.40;14.00;;;6.90;99.90;;;;;;5117566;28;20471;-78
2023/04/15 02:35:52;;;;;;;15.90;14.50;;;6.90;99.90;;;;;;5099129;28;21053;-77
2023/04/15 02:38:20;;;;;;;16.93;15.40;;;7.00;99.90;;;;;;5099098;28;20923;-78
2023/04/15 02:40:49;;;;;;;17.80;16.20;;;6.90;99.90;;;;;;5099211;28;21009;-77
2023/04/15 02:43:17;;;;;;;16.37;14.77;;;6.90;99.90;;;;;;5099004;28;20470;-77
2023/04/15 02:45:46;;;;;;;18.20;16.50;;;6.90;99.90;;;;;;5098776;28;20436;-78
2023/04/15 02:48:17;;;;;;;17.00;15.40;;;6.90;99.90;;;;;;5099142;28;20443;-78
2023/04/15 02:50:46;;;;;;;18.00;16.40;;;6.90;99.90;;;;;;5099257;28;20907;-77
2023/04/15 02:53:18;;;;;;;19.20;17.50;;;6.90;99.90;;;;;;5098792;28;20474;-77
2023/04/15 02:55:47;;;;;;;18.70;16.70;;;6.90;99.90;;;;;;5098806;28;20785;-78
2023/04/15 02:58:15;;;;;;;19.73;17.93;;;6.90;99.90;;;;;;5098431;28;20913;-78
2023/04/15 03:00:43;;;;;;;18.90;17.20;;;6.90;99.90;;;;;;5098147;28;20483;-78
2023/04/15 03:03:13;;;;;;;20.90;19.00;;;6.90;99.90;;;;;;5098642;28;20463;-77
2023/04/15 03:05:42;;;;;;;20.87;19.07;;;6.90;99.90;;;;;;5115321;28;20426;-77
2023/04/15 03:08:10;;;;;;;20.53;18.73;;;6.90;99.90;;;;;;5115012;28;20444;-77
2023/04/15 03:10:40;;;;;;;21.17;19.27;;;6.90;99.90;;;;;;5096645;28;20487;-77
2023/04/15 03:13:08;;;;;;;19.60;17.80;;;7.00;99.90;;;;;;5114992;28;20472;-77
2023/04/15 03:15:37;;;;;;;20.23;18.37;;;7.00;99.90;;;;;;5096888;28;20534;-77
2023/04/15 03:18:06;;;;;;;19.30;17.40;;;6.90;99.90;;;;;;5096735;28;20452;-77
2023/04/15 03:20:36;;;;;;;21.20;19.20;;;7.00;99.90;;;;;;5096481;28;20909;-77
2023/04/15 03:23:04;;;;;;;20.87;19.07;;;7.00;99.90;;;;;;5114872;28;20553;-77
2023/04/15 03:25:32;;;;;;;20.37;18.67;;;7.00;99.90;;;;;;5096385;28;20474;-77
2023/04/15 03:28:02;;;;;;;21.70;19.70;;;7.00;99.90;;;;;;5096948;28;20497;-77
2023/04/15 03:30:30;;;;;;;20.27;18.37;;;7.00;99.90;;;;;;5115219;28;20442;-77
2023/04/15 03:32:58;;;;;;;21.13;19.23;;;7.00;99.90;;;;;;5096364;28;20994;-77
2023/04/15 03:35:27;;;;;;;21.47;19.47;;;7.00;99.90;;;;;;5096821;28;20927;-77
2023/04/15 03:37:55;;;;;;;23.90;21.80;;;7.00;99.90;;;;;;5096454;28;20452;-77
2023/04/15 03:40:23;;;;;;;23.10;21.00;;;7.00;99.90;;;;;;5096871;28;20454;-77
2023/04/15 03:42:51;;;;;;;21.57;19.67;;;7.00;99.90;;;;;;5099740;28;20462;-78
2023/04/15 03:45:20;;;;;;;21.63;19.63;;;7.10;99.90;;;;;;5100186;28;20814;-78
2023/04/15 03:47:49;;;;;;;21.03;19.20;;;7.00;99.90;;;;;;5099874;28;20453;-78
2023/04/15 03:50:17;;;;;;;20.70;18.80;;;7.10;99.90;;;;;;5099905;28;20490;-78
2023/04/15 03:52:46;;;;;;;21.97;19.97;;;7.10;99.90;;;;;;5099493;28;20492;-78
2023/04/15 03:55:16;;;;;;;21.23;19.23;;;7.10;99.90;;;;;;5100081;28;20444;-78
2023/04/15 03:57:44;;;;;;;21.50;19.50;;;7.10;99.90;;;;;;5099879;28;20858;-78
2023/04/15 04:00:12;;;;;;;20.60;18.70;;;7.10;99.90;;;;;;5099521;28;20459;-78
2023/04/15 04:02:42;;;;;;;22.23;20.20;;;7.10;99.90;;;;;;5099732;28;20465;-78
2023/04/15 04:05:10;;;;;;;21.13;19.23;;;7.10;99.90;;;;;;5099553;28;20754;-78
2023/04/15 04:07:41;;;;;;;20.03;18.23;;;7.10;99.90;;;;;;5114649;28;20476;-77
2023/04/15 04:10:13;;;;;;;20.43;18.53;;;7.10;99.90;;;;;;5096091;28;20806;-78
2023/04/15 04:12:41;;;;;;;18.70;17.00;;;7.10;99.90;;;;;;5095874;28;20461;-77
2023/04/15 04:15:10;;;;;;;20.10;18.20;;;7.20;99.90;;;;;;5095595;28;20543;-77
2023/04/15 04:17:38;;;;;;;20.50;18.57;;;7.20;99.90;;;;;;5113840;28;21019;-77
2023/04/15 04:20:09;;;;;;;21.23;19.33;;;7.20;99.90;;;;;;5095709;28;20446;-77
2023/04/15 04:22:38;;;;;;;21.20;19.20;;;7.20;99.90;;;;;;5095554;28;20470;-77
2023/04/15 04:25:07;;;;;;;22.63;20.53;;;7.20;99.90;;;;;;5113981;28;20437;-78
2023/04/15 04:27:36;;;;;;;21.83;19.87;;;7.20;99.90;;;;;;5095631;28;20449;-77
2023/04/15 04:30:05;;;;;;;22.70;20.57;;;7.30;99.90;;;;;;5095574;28;20998;-77
2023/04/15 04:32:33;;;;;;;21.83;19.87;;;7.30;99.90;;;;;;5095561;28;21025;-77
2023/04/15 04:35:01;;;;;;;24.60;22.30;;;7.30;99.90;;;;;;5095212;28;21001;-77
2023/04/15 04:37:31;;;;;;;24.47;22.27;;;7.30;99.90;;;;;;5095525;28;20874;-77
2023/04/15 04:39:59;;;;;;;25.83;23.33;;;7.30;99.90;;;;;;5095604;28;20508;-77
2023/04/15 04:42:27;;;;;;;25.13;22.83;;;7.30;99.90;;;;;;5095366;28;20456;-77
2023/04/15 04:44:56;;;;;;;25.13;22.93;;;7.40;99.90;;;;;;5095549;28;20540;-77
2023/04/15 04:47:24;;;;;;;26.60;24.07;;;7.40;99.90;;;;;;5113390;28;20426;-77
2023/04/15 04:49:52;;;;;;;27.90;25.33;;;7.40;99.90;;;;;;5095051;28;20450;-77
2023/04/15 04:52:20;;;;;;;25.63;23.20;;;7.40;99.90;;;;;;5095410;28;20484;-77
2023/04/15 04:54:50;;;;;;;24.33;22.13;;;7.40;99.90;;;;;;5115050;28;20965;-77
2023/04/15 04:57:18;;;;;;;26.93;24.47;;;7.40;99.90;;;;;;5096791;28;20501;-77
2023/04/15 04:59:46;;;;;;;29.33;26.57;;;7.40;99.90;;;;;;5097170;28;20438;-77
2023/04/15 05:02:14;;;;;;;27.53;24.90;;;7.40;99.90;;;;;;5095790;28;20519;-77
2023/04/15 05:04:43;;;;;;;28.87;26.17;;;7.50;99.90;;;;;;5095629;28;20445;-77
2023/04/15 05:07:11;;;;;;;28.87;26.20;;;7.50;99.90;;;;;;5095407;28;20455;-77
2023/04/15 05:09:39;;;;;;;30.93;27.80;;;7.50;99.90;;;;;;5095317;28;20450;-77
2023/04/15 05:12:13;;;;;;;29.30;26.60;;;7.50;99.90;;;;;;5097277;28;20469;-77
2023/04/15 05:14:42;;;;;;;29.00;26.10;;;7.60;99.90;;;;;;5099469;28;20461;-77
2023/04/15 05:17:11;;;;;;;29.33;26.53;;;7.60;99.90;;;;;;5099270;28;20446;-77
2023/04/15 05:19:39;;;;;;;30.37;27.17;;;7.60;99.90;;;;;;5099419;28;20449;-77
2023/04/15 05:22:07;;;;;;;31.50;28.50;;;7.60;99.90;;;;;;5099055;28;20520;-77
2023/04/15 05:24:36;;;;;;;32.80;29.80;;;7.60;99.90;;;;;;5099158;28;20454;-77
2023/04/15 05:27:04;;;;;;;32.20;29.00;;;7.70;99.90;;;;;;5099385;28;20471;-77
2023/04/15 05:29:34;;;;;;;33.23;30.03;;;7.70;99.90;;;;;;5100119;28;20442;-77
2023/04/15 05:32:02;;;;;;;32.57;29.47;;;7.70;99.90;;;;;;5117356;28;20522;-77
2023/04/15 05:34:30;;;;;;;32.43;29.40;;;7.70;99.90;;;;;;5099375;28;21070;-77
2023/04/15 05:36:58;;;;;;;30.10;27.13;;;7.70;99.90;;;;;;5099236;28;20452;-77
2023/04/15 05:39:26;;;;;;;32.37;29.17;;;7.80;99.90;;;;;;5099571;28;20448;-77
2023/04/15 05:41:55;;;;;;;32.10;29.00;;;7.80;99.90;;;;;;5117615;28;20996;-77
2023/04/15 05:44:23;;;;;;;32.90;29.40;;;7.80;99.90;;;;;;5100057;28;20439;-77
2023/04/15 05:46:52;;;;;;;34.57;31.07;;;7.80;99.90;;;;;;5099490;28;20457;-77
2023/04/15 05:49:20;;;;;;;31.33;28.33;;;7.80;99.90;;;;;;5099677;28;20479;-78
2023/04/15 05:51:48;;;;;;;30.83;27.60;;;7.80;99.90;;;;;;5117737;28;20971;-78
2023/04/15 05:54:17;;;;;;;30.87;27.77;;;7.90;99.90;;;;;;5099704;28;20467;-78
2023/04/15 05:56:47;;;;;;;30.47;27.53;;;7.90;99.90;;;;;;5099750;28;20469;-78
2023/04/15 05:59:15;;;;;;;31.20;28.10;;;7.90;99.90;;;;;;5100511;28;20447;-78
2023/04/15 06:01:43;;;;;;;30.13;27.27;;;7.90;99.90;;;;;;5099149;28;20996;-77
2023/04/15 06:04:14;;;;;;;31.30;28.30;;;7.90;99.90;;;;;;5098382;28;20470;-77
2023/04/15 06:06:42;;;;;;;32.63;29.43;;;7.90;99.90;;;;;;5099408;28;20439;-78
2023/04/15 06:09:11;;;;;;;30.60;27.47;;;7.90;99.90;;;;;;5100790;28;20478;-79
2023/04/15 06:11:40;;;;;;;30.53;27.50;;;7.90;99.90;;;;;;5100867;28;20507;-78
2023/04/15 06:14:08;;;;;;;29.63;26.63;;;8.00;99.90;;;;;;5101364;28;21020;-79
2023/04/15 06:16:36;;;;;;;33.93;30.53;;;8.00;99.90;;;;;;5101643;28;20798;-79
2023/04/15 06:19:04;;;;;;;30.13;27.10;;;8.00;99.90;;;;;;5101331;28;20439;-79
2023/04/15 06:21:34;;;;;;;30.27;27.37;;;7.90;99.90;;;;;;5101135;28;20443;-80
2023/04/15 06:24:02;;;;;;;29.77;26.90;;;8.00;99.90;;;;;;5101854;28;20450;-80
2023/04/15 06:26:31;;;;;;;30.43;27.50;;;8.00;99.90;;;;;;5101536;28;20431;-80
2023/04/15 06:28:59;;;;;;;29.83;26.93;;;8.00;99.90;;;;;;5101937;28;20520;-79
2023/04/15 06:31:28;;;;;;;30.87;27.73;;;8.00;99.90;;;;;;5101931;28;20479;-80
2023/04/15 06:33:56;;;;;;;31.17;28.10;;;8.00;99.90;;;;;;5101513;28;20444;-79
2023/04/15 06:36:29;;;;;;;30.70;27.50;;;8.10;99.90;;;;;;5101661;28;20523;-79
2023/04/15 06:38:58;;;;;;;30.30;27.27;;;8.10;99.90;;;;;;5103263;28;20443;-79
2023/04/15 06:41:27;;;;;;;31.27;28.17;;;8.10;99.90;;;;;;5101574;28;20509;-79
2023/04/15 06:43:55;;;;;;;30.40;27.37;;;8.10;99.90;;;;;;5101599;28;20454;-79
2023/04/15 06:47:02;;;;;;;30.50;27.43;;;8.10;99.90;;;;;;5108642;28;20450;-80
2023/04/15 06:50:10;;;;;;;30.27;27.37;;;8.10;99.90;;;;;;5122754;28;20427;-79
2023/04/15 06:52:38;;;;;;;30.43;27.53;;;8.10;99.90;;;;;;5119573;28;20466;-79
2023/04/15 06:55:09;;;;;;;30.60;27.60;;;8.10;99.90;;;;;;5101190;28;20462;-79
2023/04/15 06:57:37;;;;;;;28.87;25.97;;;8.20;99.90;;;;;;5101023;28;20449;-79
2023/04/15 07:00:06;;;;;;;28.27;25.63;;;8.20;99.90;;;;;;5101070;28;20510;-79
2023/04/15 07:02:34;;;;;;;30.20;27.23;;;8.20;99.90;;;;;;5100463;28;20456;-79
2023/04/15 07:05:03;;;;;;;28.93;26.10;;;8.20;99.90;;;;;;5100657;28;20536;-80
2023/04/15 07:07:31;;;;;;;29.80;27.00;;;8.20;99.90;;;;;;5107798;28;20441;-80
2023/04/15 07:10:00;;;;;;;28.70;25.97;;;8.30;99.90;;;;;;5107192;28;20454;-80
2023/04/15 07:12:30;;;;;;;26.93;24.43;;;8.20;99.90;;;;;;5104046;28;20462;-80
2023/04/15 07:19:24;;;;;;;27.60;25.10;;;8.30;99.90;;;;;;5107257;28;20515;-80
2023/04/15 07:21:53;;;;;;;27.90;25.37;;;8.30;99.90;;;;;;5101714;28;20471;-80
2023/04/15 07:24:25;;;;;;;26.60;24.00;;;8.40;99.90;;;;;;5102101;28;20875;-81
2023/04/15 07:26:55;;;;;;;25.83;23.33;;;8.40;99.90;;;;;;5101827;28;20825;-81
2023/04/15 07:29:27;;;;;;;27.73;25.23;;;8.40;99.90;;;;;;5101522;28;20443;-81
2023/04/15 07:31:56;;;;;;;25.73;23.40;;;8.50;99.90;;;;;;5101748;28;20473;-82
2023/04/15 07:34:24;;;;;;;25.27;22.87;;;8.50;99.90;;;;;;5102501;28;20436;-82
2023/04/15 07:36:52;;;;;;;23.03;20.93;;;8.50;99.90;;;;;;5102980;28;20554;-83
2023/04/15 07:39:21;;;;;;;22.80;20.70;;;8.50;99.90;;;;;;5100496;28;20448;-81
2023/04/15 07:41:49;;;;;;;24.20;22.00;;;8.50;99.90;;;;;;5099676;28;20474;-81
2023/04/15 07:44:17;;;;;;;21.90;20.00;;;8.60;99.90;;;;;;5099670;28;20450;-82
2023/04/15 07:46:47;;;;;;;21.90;19.93;;;8.60;99.90;;;;;;5100018;28;20446;-83
2023/04/15 07:49:16;;;;;;;20.50;18.67;;;8.60;99.90;;;;;;5099832;28;20457;-82
2023/04/15 07:51:44;;;;;;;20.57;18.80;;;8.60;99.90;;;;;;5100492;28;20470;-82
2023/04/15 07:54:13;;;;;;;19.67;18.07;;;8.70;99.90;;;;;;5100637;28;20447;-83
2023/04/15 07:56:41;;;;;;;18.70;17.20;;;8.60;99.90;;;;;;5099620;28;20475;-82
2023/04/15 07:59:10;;;;;;;17.97;16.43;;;8.70;99.90;;;;;;5118142;28;20433;-82
2023/04/15 08:01:38;;;;;;;17.83;16.33;;;8.70;99.90;;;;;;5099177;28;21114;-83
2023/04/15 08:04:08;;;;;;;16.77;15.37;;;8.70;99.90;;;;;;5102498;28;20447;-83
2023/04/15 08:06:38;;;;;;;17.73;16.23;;;8.80;99.90;;;;;;5102108;28;20447;-82
2023/04/15 08:09:07;;;;;;;17.80;16.30;;;8.80;99.90;;;;;;5119407;28;20419;-82
2023/04/15 08:11:35;;;;;;;16.23;14.87;;;8.80;99.90;;;;;;5100801;28;20857;-82
2023/04/15 08:14:03;;;;;;;16.57;15.17;;;8.80;99.90;;;;;;5100654;28;20527;-81
2023/04/15 08:16:33;;;;;;;16.80;15.40;;;8.80;99.90;;;;;;5099325;28;20482;-82
2023/04/15 08:19:02;;;;;;;15.90;14.60;;;8.90;99.90;;;;;;5118091;28;20427;-82
2023/04/15 08:21:32;;;;;;;14.57;13.27;;;8.90;99.90;;;;;;5099737;28;20948;-81
2023/04/15 08:24:00;;;;;;;14.60;13.40;;;8.90;99.90;;;;;;5099281;28;20443;-81
2023/04/15 08:26:28;;;;;;;13.93;12.63;;;9.00;99.90;;;;;;5099034;28;20478;-82
2023/04/15 08:28:57;;;;;;;12.73;11.50;;;9.00;99.90;;;;;;5116629;28;20441;-82
2023/04/15 08:31:27;;;;;;;14.20;13.00;;;9.00;99.90;;;;;;5098776;28;20954;-81
2023/04/15 08:33:57;;;;;;;16.30;14.80;;;9.00;99.90;;;;;;5098252;28;20434;-81
2023/04/15 08:36:25;;;;;;;13.87;12.70;;;9.00;99.90;;;;;;5098406;28;20459;-81
2023/04/15 08:38:55;;;;;;;15.60;14.30;;;9.00;99.90;;;;;;5098148;28;20482;-81
2023/04/15 08:41:25;;;;;;;18.20;16.70;;;9.00;99.90;;;;;;5097824;28;20828;-81
2023/04/15 08:43:56;;;;;;;16.43;14.93;;;9.10;99.90;;;;;;5097728;28;20451;-81
2023/04/15 08:46:25;;;;;;;15.47;14.13;;;9.10;99.90;;;;;;5116092;28;20420;-81
2023/04/15 08:48:56;;;;;;;13.30;12.00;;;9.10;99.90;;;;;;5098415;28;20550;-82
2023/04/15 08:51:26;;;;;;;11.40;10.40;;;9.10;99.90;;;;;;5097955;28;20443;-81
2023/04/15 08:53:56;;;;;;;11.70;10.70;;;9.10;99.90;;;;;;5097598;28;20479;-82
2023/04/15 08:56:26;;;;;;;10.50;9.50;;;9.10;99.90;;;;;;5097137;28;20841;-81
2023/04/15 08:58:55;;;;;;;9.97;9.07;;;9.10;99.90;;;;;;5097826;28;20964;-82
2023/04/15 09:01:23;;;;;;;9.87;8.97;;;9.20;99.90;;;;;;5098045;28;20474;-81
2023/04/15 09:03:53;;;;;;;9.80;8.80;;;9.20;99.90;;;;;;5115448;28;20470;-81
2023/04/15 09:06:24;;;;;;;9.13;8.23;;;9.20;99.90;;;;;;5098565;28;20439;-81
2023/04/15 09:08:52;;;;;;;9.03;8.13;;;9.20;99.90;;;;;;5097659;28;20803;-82
2023/04/15 09:11:23;;;;;;;9.07;8.20;;;9.20;99.90;;;;;;5097672;28;20444;-81
2023/04/15 09:13:51;;;;;;;8.80;8.00;;;9.20;99.90;;;;;;5097108;28;20526;-82
2023/04/15 09:16:19;;;;;;;9.53;8.43;;;9.30;99.90;;;;;;5097705;28;20944;-81
2023/04/15 09:18:48;;;;;;;9.37;8.47;;;9.30;99.90;;;;;;5097217;28;20454;-81
2023/04/15 09:21:18;;;;;;;9.10;8.30;;;9.30;99.90;;;;;;5097626;28;20439;-81
2023/04/15 09:23:57;;;;;;;8.83;8.03;;;9.30;99.90;;;;;;5097208;28;20512;-81
2023/04/15 09:26:35;;;;;;;8.43;7.70;;;9.30;99.90;;;;;;5102113;28;20439;-83
2023/04/15 09:29:08;;;;;;;8.00;7.20;;;9.30;99.90;;;;;;5103083;28;20954;-83
2023/04/15 09:31:36;;;;;;;7.43;6.73;;;9.40;99.90;;;;;;5119635;28;20431;-81
2023/04/15 09:34:05;;;;;;;7.00;6.30;;;9.40;99.90;;;;;;5100516;28;20524;-82
2023/04/15 09:36:52;;;;;;;7.37;6.67;;;9.40;99.90;;;;;;5100664;28;20470;-82
2023/04/15 09:39:21;;;;;;;7.13;6.43;;;9.40;99.90;;;;;;5100433;28;20809;-82
2023/04/15 09:42:06;;;;;;;9.03;7.60;;;9.40;99.90;;;;;;5100037;28;20475;-82
2023/04/15 09:44:35;;;;;;;6.67;6.00;;;9.40;99.90;;;;;;5100404;28;20530;-82
2023/04/15 09:47:03;;;;;;;8.90;7.30;;;9.90;99.90;;;;;;5100143;28;20446;-81
2023/04/15 09:49:31;;;;;;;7.67;6.97;;;9.40;99.90;;;;;;5103671;28;20443;-81
2023/04/15 09:52:00;;;;;;;6.17;5.57;;;9.40;99.90;;;;;;5106446;28;20463;-82
2023/04/15 09:54:35;;;;;;;6.97;6.17;;;9.40;99.90;;;;;;5104538;28;20447;-82
2023/04/15 09:57:08;;;;;;;6.90;6.20;;;9.40;99.90;;;;;;5101859;28;20482;-82
2023/04/15 09:59:37;;;;;;;6.80;6.10;;;9.40;99.90;;;;;;5105334;28;20488;-82
2023/04/15 10:02:06;;;;;;;7.20;6.50;;;9.40;99.90;;;;;;5123325;28;20474;-82
2023/04/15 10:04:39;;;;;;;7.47;6.77;;;9.40;99.90;;;;;;5104671;28;20447;-81
2023/04/15 10:07:09;;;;;;;7.50;6.80;;;9.40;99.90;;;;;;5122813;28;20419;-82
2023/04/15 10:09:39;;;;;;;8.00;7.20;;;9.40;99.90;;;;;;5123095;28;20427;-82
2023/04/15 10:12:09;;;;;;;8.00;7.27;;;9.40;99.90;;;;;;5104508;28;20467;-82
2023/04/15 10:14:38;;;;;;;6.80;6.20;;;9.40;99.90;;;;;;5105417;28;20519;-82
2023/04/15 10:17:11;;;;;;;7.10;6.40;;;9.40;99.90;;;;;;5122875;28;20491;-81
2023/04/15 10:19:40;;;;;;;6.83;6.13;;;9.40;99.90;;;;;;5104123;28;20443;-81
2023/04/15 10:22:09;;;;;;;7.73;6.97;;;9.40;99.90;;;;;;5103858;28;21005;-81
2023/04/15 10:24:39;;;;;;;7.00;6.30;;;9.40;99.90;;;;;;5103021;28;20486;-81
2023/04/15 10:27:10;;;;;;;8.13;7.33;;;9.40;99.90;;;;;;5121929;28;20462;-82
2023/04/15 10:29:38;;;;;;;8.20;7.50;;;9.40;99.90;;;;;;5103324;28;20447;-82
2023/04/15 10:32:07;;;;;;;8.20;7.50;;;9.40;99.90;;;;;;5102106;28;20464;-81
2023/04/15 10:34:36;;;;;;;9.10;8.30;;;9.50;99.90;;;;;;5103084;28;20444;-82
2023/04/15 10:37:04;;;;;;;9.43;8.60;;;9.50;99.90;;;;;;5102489;28;20534;-82
2023/04/15 10:39:41;;;;;;;9.53;8.63;;;9.50;99.90;;;;;;5121079;28;20492;-82
2023/04/15 10:42:12;;;;;;;9.70;8.90;;;9.50;99.90;;;;;;5102273;28;20474;-81
2023/04/15 10:44:43;;;;;;;9.70;8.80;;;9.50;99.90;;;;;;5102661;28;20446;-81
2023/04/15 10:47:13;;;;;;;10.57;9.67;;;9.60;99.90;;;;;;5122052;28;20416;-81
2023/04/15 10:49:47;;;;;;;11.57;10.67;;;9.60;99.90;;;;;;5102774;28;20451;-81
2023/04/15 10:52:16;;;;;;;12.20;11.00;;;9.60;99.90;;;;;;5102603;28;20492;-82
2023/04/15 10:54:45;;;;;;;11.30;10.30;;;9.60;99.90;;;;;;5102551;28;20451;-82
2023/04/15 10:57:23;;;;;;;11.73;10.73;;;9.60;99.90;;;;;;5101673;28;20468;-81
2023/04/15 11:00:12;;;;;;;11.80;10.80;;;9.60;99.90;;;;;;5101977;28;20435;-81
2023/04/15 11:02:43;;;;;;;12.67;11.47;;;9.60;99.90;;;;;;5119897;28;20463;-82
2023/04/15 11:05:13;;;;;;;13.43;12.23;;;9.70;99.90;;;;;;5102846;28;20439;-81
2023/04/15 11:07:48;;;;;;;12.90;11.70;;;9.60;99.90;;;;;;5101578;28;20439;-81
2023/04/15 11:10:50;;;;;;;14.80;13.13;;;9.70;99.90;;;;;;5119352;28;20506;-81
2023/04/15 11:13:26;;;;;;;14.00;12.70;;;9.70;99.90;;;;;;5100883;28;20475;-81
2023/04/15 11:15:58;;;;;;;14.90;13.50;;;9.70;99.90;;;;;;5100832;28;20454;-81
2023/04/15 11:18:30;;;;;;;14.07;12.77;;;9.70;99.90;;;;;;5101337;28;20467;-81
2023/04/15 11:21:03;;;;;;;13.23;12.03;;;9.70;99.90;;;;;;5101075;28;20443;-81
2023/04/15 11:23:38;;;;;;;14.27;12.90;;;9.70;99.90;;;;;;5100696;28;20475;-81
2023/04/15 11:26:10;;;;;;;14.73;13.40;;;9.60;99.90;;;;;;5100926;28;20922;-81
2023/04/15 11:28:42;;;;;;;14.60;13.30;;;9.70;99.90;;;;;;5100035;28;20526;-81
2023/04/15 11:31:12;;;;;;;16.23;14.77;;;9.70;99.90;;;;;;5101209;28;20942;-81
2023/04/15 11:33:47;;;;;;;16.50;15.00;;;9.70;99.90;;;;;;5100272;28;20521;-81
2023/04/15 11:36:15;;;;;;;15.97;14.47;;;9.70;99.90;;;;;;5100280;28;20430;-81
2023/04/15 11:38:44;;;;;;;17.97;16.33;;;9.70;99.90;;;;;;5100608;28;20467;-81
2023/04/15 11:41:13;;;;;;;17.70;16.10;;;9.70;99.90;;;;;;5099775;28;20443;-81
2023/04/15 11:43:42;;;;;;;18.77;16.93;;;9.80;99.90;;;;;;5118065;28;20459;-81
2023/04/15 11:46:11;;;;;;;17.17;15.67;;;9.80;99.90;;;;;;5100481;28;20959;-81
2023/04/15 11:48:43;;;;;;;16.90;15.40;;;9.80;99.90;;;;;;5100665;28;20448;-81
2023/04/15 11:51:12;;;;;;;18.87;17.07;;;9.80;99.90;;;;;;5100290;28;20448;-81
2023/04/15 11:53:44;;;;;;;18.80;17.10;;;9.80;99.90;;;;;;5101217;28;20475;-81
2023/04/15 11:56:19;;;;;;;20.33;18.50;;;9.80;99.90;;;;;;5101167;28;20441;-81
2023/04/15 11:58:51;;;;;;;19.53;17.73;;;9.90;99.90;;;;;;5100745;28;20512;-81
2023/04/15 12:01:20;;;;;;;22.50;20.50;;;9.90;99.90;;;;;;5100645;28;20452;-82
2023/04/15 12:03:49;;;;;;;21.27;19.30;;;9.80;99.90;;;;;;5100073;28;20444;-83
2023/04/15 12:06:19;;;;;;;22.77;20.57;;;9.90;99.90;;;;;;5099783;28;20847;-83
2023/04/15 12:08:52;;;;;;;22.50;20.33;;;9.90;99.90;;;;;;5100886;28;20447;-82
2023/04/15 12:11:27;;;;;;;22.90;20.70;;;9.90;99.90;;;;;;5099678;28;20446;-80
2023/04/15 12:13:58;;;;;;;22.57;20.47;;;9.90;99.90;;;;;;5099269;28;20451;-80
2023/04/15 12:16:28;;;;;;;26.17;23.40;;;9.90;99.90;;;;;;5099453;28;20474;-81
2023/04/15 12:18:57;;;;;;;23.77;21.57;;;9.90;99.90;;;;;;5099399;28;20974;-81
2023/04/15 12:21:28;;;;;;;26.57;24.07;;;9.90;99.90;;;;;;5098838;28;21030;-81
2023/04/15 12:23:57;;;;;;;25.20;22.63;;;10.00;99.90;;;;;;5118219;28;20439;-81
2023/04/15 12:26:30;;;;;;;24.90;22.53;;;9.90;99.90;;;;;;5099403;28;20470;-81
2023/04/15 12:29:02;;;;;;;26.30;23.70;;;10.00;99.90;;;;;;5099145;28;20546;-81
2023/04/15 12:31:31;;;;;;;26.87;24.13;;;10.00;99.90;;;;;;5099160;28;20428;-81
2023/04/15 12:34:00;;;;;;;28.57;25.67;;;10.00;99.90;;;;;;5099280;28;20456;-81
2023/04/15 12:36:34;;;;;;;30.73;27.57;;;10.00;99.90;;;;;;5100216;28;20439;-81
2023/04/15 12:39:04;;;;;;;30.40;27.20;;;10.00;99.90;;;;;;5100186;28;20495;-81
2023/04/15 12:41:32;;;;;;;31.10;28.00;;;10.00;99.90;;;;;;5099003;28;20839;-80
2023/04/15 12:44:02;;;;;;;31.63;28.30;;;10.00;99.90;;;;;;5098060;28;20454;-79
2023/04/15 12:46:31;;;;;;;31.30;28.00;;;10.00;99.90;;;;;;5097678;28;20915;-79
2023/04/15 12:48:59;;;;;;;32.27;28.87;;;10.00;99.90;;;;;;5116621;28;20424;-79
2023/04/15 12:51:36;;;;;;;32.07;28.60;;;10.00;99.90;;;;;;5098262;28;20451;-79
2023/04/15 12:54:09;;;;;;;33.07;29.63;;;10.00;99.90;;;;;;5098003;28;20451;-79
2023/04/15 12:56:38;;;;;;;35.30;27.97;;;10.10;99.90;;;;;;5101888;28;20444;-79